sensor_id;sensor_type;location;lat;lon;timestamp;P1;durP1;ratioP1;P2;durP2;ratioP2
56537;SDS011;42435;53.292;6.000;2023-09-12T00:01:30;44.17;;;29.58;;
56537;SDS011;42435;53.292;6.000;2023-09-12T00:03:57;40.80;;;28.60;;
56537;SDS011;42435;53.292;6.000;2023-09-12T00:06:24;39.88;;;27.02;;
56537;SDS011;42435;53.292;6.000;2023-09-12T00:08:51;40.38;;;28.38;;
56537;SDS011;42435;53.292;6.000;2023-09-12T00:11:17;42.50;;;29.63;;
56537;SDS011;42435;53.292;6.000;2023-09-12T00:13:43;41.33;;;28.45;;
56537;SDS011;42435;53.292;6.000;2023-09-12T00:16:09;40.50;;;28.90;;
56537;SDS011;42435;53.292;6.000;2023-09-12T00:18:35;41.88;;;29.42;;
56537;SDS011;42435;53.292;6.000;2023-09-12T00:21:04;44.85;;;29.50;;
56537;SDS011;42435;53.292;6.000;2023-09-12T00:23:29;38.92;;;28.85;;
56537;SDS011;42435;53.292;6.000;2023-09-12T00:25:56;41.30;;;27.95;;
56537;SDS011;42435;53.292;6.000;2023-09-12T00:28:22;42.50;;;29.35;;
56537;SDS011;42435;53.292;6.000;2023-09-12T00:30:48;41.67;;;27.40;;
56537;SDS011;42435;53.292;6.000;2023-09-12T00:33:14;38.45;;;27.90;;
56537;SDS011;42435;53.292;6.000;2023-09-12T00:35:40;38.53;;;27.73;;
56537;SDS011;42435;53.292;6.000;2023-09-12T00:38:06;38.78;;;26.70;;
56537;SDS011;42435;53.292;6.000;2023-09-12T00:40:33;38.42;;;27.33;;
56537;SDS011;42435;53.292;6.000;2023-09-12T00:42:58;35.92;;;26.27;;
56537;SDS011;42435;53.292;6.000;2023-09-12T00:45:24;36.97;;;26.48;;
56537;SDS011;42435;53.292;6.000;2023-09-12T00:47:50;37.65;;;25.65;;
56537;SDS011;42435;53.292;6.000;2023-09-12T00:50:17;37.25;;;27.25;;
56537;SDS011;42435;53.292;6.000;2023-09-12T00:52:45;39.55;;;27.98;;
56537;SDS011;42435;53.292;6.000;2023-09-12T00:55:14;36.22;;;25.63;;
56537;SDS011;42435;53.292;6.000;2023-09-12T00:57:40;41.72;;;27.02;;
56537;SDS011;42435;53.292;6.000;2023-09-12T01:00:07;40.13;;;27.58;;
56537;SDS011;42435;53.292;6.000;2023-09-12T01:02:41;43.90;;;27.83;;
56537;SDS011;42435;53.292;6.000;2023-09-12T01:05:09;44.90;;;29.05;;
56537;SDS011;42435;53.292;6.000;2023-09-12T01:07:35;45.83;;;29.83;;
56537;SDS011;42435;53.292;6.000;2023-09-12T01:10:02;42.67;;;27.60;;
56537;SDS011;42435;53.292;6.000;2023-09-12T01:12:28;43.95;;;29.52;;
56537;SDS011;42435;53.292;6.000;2023-09-12T01:14:54;45.95;;;29.58;;
56537;SDS011;42435;53.292;6.000;2023-09-12T01:17:20;39.50;;;28.23;;
56537;SDS011;42435;53.292;6.000;2023-09-12T01:19:49;43.28;;;28.45;;
56537;SDS011;42435;53.292;6.000;2023-09-12T01:25:06;45.95;;;29.00;;
56537;SDS011;42435;53.292;6.000;2023-09-12T01:27:34;41.70;;;29.05;;
56537;SDS011;42435;53.292;6.000;2023-09-12T01:30:03;46.55;;;29.65;;
56537;SDS011;42435;53.292;6.000;2023-09-12T01:32:31;45.85;;;30.30;;
56537;SDS011;42435;53.292;6.000;2023-09-12T01:34:57;43.42;;;30.75;;
56537;SDS011;42435;53.292;6.000;2023-09-12T01:37:23;43.03;;;29.35;;
56537;SDS011;42435;53.292;6.000;2023-09-12T01:39:49;44.63;;;29.52;;
56537;SDS011;42435;53.292;6.000;2023-09-12T01:42:15;40.67;;;27.98;;
56537;SDS011;42435;53.292;6.000;2023-09-12T01:44:43;48.53;;;30.65;;
56537;SDS011;42435;53.292;6.000;2023-09-12T01:47:09;49.35;;;30.15;;
56537;SDS011;42435;53.292;6.000;2023-09-12T01:49:37;39.88;;;27.55;;
56537;SDS011;42435;53.292;6.000;2023-09-12T01:52:06;40.78;;;28.70;;
56537;SDS011;42435;53.292;6.000;2023-09-12T01:54:32;41.38;;;28.48;;
56537;SDS011;42435;53.292;6.000;2023-09-12T01:56:59;40.75;;;27.70;;
56537;SDS011;42435;53.292;6.000;2023-09-12T01:59:26;42.28;;;29.20;;
56537;SDS011;42435;53.292;6.000;2023-09-12T02:01:53;38.05;;;28.42;;
56537;SDS011;42435;53.292;6.000;2023-09-12T02:04:18;42.40;;;29.40;;
56537;SDS011;42435;53.292;6.000;2023-09-12T02:06:44;45.45;;;30.50;;
56537;SDS011;42435;53.292;6.000;2023-09-12T02:09:10;43.67;;;30.10;;
56537;SDS011;42435;53.292;6.000;2023-09-12T02:11:35;46.45;;;29.23;;
56537;SDS011;42435;53.292;6.000;2023-09-12T02:14:01;42.40;;;28.90;;
56537;SDS011;42435;53.292;6.000;2023-09-12T02:16:27;43.22;;;30.08;;
56537;SDS011;42435;53.292;6.000;2023-09-12T02:18:52;46.05;;;29.90;;
56537;SDS011;42435;53.292;6.000;2023-09-12T02:21:18;42.53;;;29.67;;
56537;SDS011;42435;53.292;6.000;2023-09-12T02:23:43;42.97;;;28.42;;
56537;SDS011;42435;53.292;6.000;2023-09-12T02:26:09;40.00;;;28.25;;
56537;SDS011;42435;53.292;6.000;2023-09-12T02:28:34;41.38;;;28.50;;
56537;SDS011;42435;53.292;6.000;2023-09-12T02:31:00;37.22;;;26.48;;
56537;SDS011;42435;53.292;6.000;2023-09-12T02:33:26;38.47;;;26.63;;
56537;SDS011;42435;53.292;6.000;2023-09-12T02:35:51;39.17;;;26.60;;
56537;SDS011;42435;53.292;6.000;2023-09-12T02:38:17;43.58;;;29.30;;
56537;SDS011;42435;53.292;6.000;2023-09-12T02:40:43;46.67;;;31.10;;
56537;SDS011;42435;53.292;6.000;2023-09-12T02:43:09;41.88;;;29.92;;
56537;SDS011;42435;53.292;6.000;2023-09-12T02:45:34;42.50;;;29.67;;
56537;SDS011;42435;53.292;6.000;2023-09-12T02:48:00;42.95;;;28.63;;
56537;SDS011;42435;53.292;6.000;2023-09-12T02:50:28;39.67;;;28.25;;
56537;SDS011;42435;53.292;6.000;2023-09-12T02:52:54;38.53;;;27.20;;
56537;SDS011;42435;53.292;6.000;2023-09-12T02:55:20;42.97;;;28.77;;
56537;SDS011;42435;53.292;6.000;2023-09-12T02:57:45;43.60;;;28.05;;
56537;SDS011;42435;53.292;6.000;2023-09-12T03:00:14;40.80;;;28.10;;
56537;SDS011;42435;53.292;6.000;2023-09-12T03:02:40;41.05;;;28.85;;
56537;SDS011;42435;53.292;6.000;2023-09-12T03:05:05;41.35;;;27.45;;
56537;SDS011;42435;53.292;6.000;2023-09-12T03:07:31;38.58;;;27.15;;
56537;SDS011;42435;53.292;6.000;2023-09-12T03:09:57;45.95;;;29.15;;
56537;SDS011;42435;53.292;6.000;2023-09-12T03:12:22;44.92;;;29.42;;
56537;SDS011;42435;53.292;6.000;2023-09-12T03:14:48;41.13;;;28.85;;
56537;SDS011;42435;53.292;6.000;2023-09-12T03:17:13;42.03;;;27.33;;
56537;SDS011;42435;53.292;6.000;2023-09-12T03:19:39;47.45;;;28.30;;
56537;SDS011;42435;53.292;6.000;2023-09-12T03:22:04;38.50;;;26.10;;
56537;SDS011;42435;53.292;6.000;2023-09-12T03:24:30;41.30;;;29.38;;
56537;SDS011;42435;53.292;6.000;2023-09-12T03:26:56;43.92;;;28.80;;
56537;SDS011;42435;53.292;6.000;2023-09-12T03:29:22;42.20;;;28.67;;
56537;SDS011;42435;53.292;6.000;2023-09-12T03:31:48;47.00;;;30.02;;
56537;SDS011;42435;53.292;6.000;2023-09-12T03:34:13;57.88;;;32.60;;
56537;SDS011;42435;53.292;6.000;2023-09-12T03:36:39;46.70;;;29.05;;
56537;SDS011;42435;53.292;6.000;2023-09-12T03:39:05;49.33;;;31.52;;
56537;SDS011;42435;53.292;6.000;2023-09-12T03:41:33;50.83;;;32.85;;
56537;SDS011;42435;53.292;6.000;2023-09-12T03:43:59;43.55;;;30.63;;
56537;SDS011;42435;53.292;6.000;2023-09-12T03:46:25;51.00;;;32.33;;
56537;SDS011;42435;53.292;6.000;2023-09-12T03:48:51;51.22;;;32.85;;
56537;SDS011;42435;53.292;6.000;2023-09-12T03:51:16;55.88;;;34.75;;
56537;SDS011;42435;53.292;6.000;2023-09-12T03:53:42;51.67;;;31.88;;
56537;SDS011;42435;53.292;6.000;2023-09-12T03:56:08;60.67;;;36.35;;
56537;SDS011;42435;53.292;6.000;2023-09-12T03:58:37;57.28;;;33.67;;
56537;SDS011;42435;53.292;6.000;2023-09-12T04:01:03;57.05;;;33.17;;
56537;SDS011;42435;53.292;6.000;2023-09-12T04:03:28;50.13;;;31.55;;
56537;SDS011;42435;53.292;6.000;2023-09-12T04:05:54;52.38;;;32.80;;
56537;SDS011;42435;53.292;6.000;2023-09-12T04:08:20;83.45;;;36.85;;
56537;SDS011;42435;53.292;6.000;2023-09-12T04:10:45;89.13;;;35.00;;
56537;SDS011;42435;53.292;6.000;2023-09-12T04:13:11;88.93;;;35.15;;
56537;SDS011;42435;53.292;6.000;2023-09-12T04:15:36;151.27;;;39.30;;
56537;SDS011;42435;53.292;6.000;2023-09-12T04:18:02;69.65;;;35.30;;
56537;SDS011;42435;53.292;6.000;2023-09-12T04:20:28;244.45;;;43.78;;
56537;SDS011;42435;53.292;6.000;2023-09-12T04:22:54;177.40;;;39.63;;
56537;SDS011;42435;53.292;6.000;2023-09-12T04:25:19;197.98;;;36.92;;
56537;SDS011;42435;53.292;6.000;2023-09-12T04:27:45;175.85;;;34.45;;
56537;SDS011;42435;53.292;6.000;2023-09-12T04:30:11;122.93;;;35.97;;
56537;SDS011;42435;53.292;6.000;2023-09-12T04:32:36;196.90;;;38.00;;
56537;SDS011;42435;53.292;6.000;2023-09-12T04:35:02;130.50;;;37.40;;
56537;SDS011;42435;53.292;6.000;2023-09-12T04:37:28;127.05;;;34.45;;
56537;SDS011;42435;53.292;6.000;2023-09-12T04:39:54;114.90;;;34.22;;
56537;SDS011;42435;53.292;6.000;2023-09-12T04:42:19;72.35;;;32.50;;
56537;SDS011;42435;53.292;6.000;2023-09-12T04:44:45;67.80;;;33.75;;
56537;SDS011;42435;53.292;6.000;2023-09-12T04:47:11;106.47;;;36.88;;
56537;SDS011;42435;53.292;6.000;2023-09-12T04:49:37;94.15;;;36.80;;
56537;SDS011;42435;53.292;6.000;2023-09-12T04:52:03;81.75;;;38.20;;
56537;SDS011;42435;53.292;6.000;2023-09-12T04:54:29;88.47;;;37.30;;
56537;SDS011;42435;53.292;6.000;2023-09-12T04:56:55;75.55;;;37.88;;
56537;SDS011;42435;53.292;6.000;2023-09-12T04:59:20;104.90;;;41.50;;
56537;SDS011;42435;53.292;6.000;2023-09-12T05:01:46;105.22;;;41.60;;
56537;SDS011;42435;53.292;6.000;2023-09-12T05:04:15;80.20;;;37.42;;
56537;SDS011;42435;53.292;6.000;2023-09-12T05:06:41;138.18;;;46.28;;
56537;SDS011;42435;53.292;6.000;2023-09-12T05:09:07;103.05;;;42.03;;
56537;SDS011;42435;53.292;6.000;2023-09-12T05:11:34;78.75;;;38.17;;
56537;SDS011;42435;53.292;6.000;2023-09-12T05:14:01;101.18;;;42.15;;
56537;SDS011;42435;53.292;6.000;2023-09-12T05:16:30;145.40;;;46.83;;
56537;SDS011;42435;53.292;6.000;2023-09-12T05:18:55;101.03;;;43.17;;
56537;SDS011;42435;53.292;6.000;2023-09-12T05:21:21;207.98;;;48.55;;
56537;SDS011;42435;53.292;6.000;2023-09-12T05:23:46;204.73;;;50.60;;
56537;SDS011;42435;53.292;6.000;2023-09-12T05:26:18;129.30;;;42.28;;
56537;SDS011;42435;53.292;6.000;2023-09-12T05:28:43;170.55;;;45.22;;
56537;SDS011;42435;53.292;6.000;2023-09-12T05:31:09;110.80;;;43.95;;
56537;SDS011;42435;53.292;6.000;2023-09-12T05:33:34;119.93;;;43.17;;
56537;SDS011;42435;53.292;6.000;2023-09-12T05:36:00;136.50;;;41.20;;
56537;SDS011;42435;53.292;6.000;2023-09-12T05:38:26;120.60;;;42.80;;
56537;SDS011;42435;53.292;6.000;2023-09-12T05:40:51;127.72;;;45.13;;
56537;SDS011;42435;53.292;6.000;2023-09-12T05:43:18;74.93;;;40.05;;
56537;SDS011;42435;53.292;6.000;2023-09-12T05:45:43;164.63;;;44.85;;
56537;SDS011;42435;53.292;6.000;2023-09-12T05:48:09;180.35;;;47.53;;
56537;SDS011;42435;53.292;6.000;2023-09-12T05:50:36;106.00;;;41.55;;
56537;SDS011;42435;53.292;6.000;2023-09-12T05:53:02;86.82;;;40.90;;
56537;SDS011;42435;53.292;6.000;2023-09-12T05:55:27;87.43;;;41.20;;
56537;SDS011;42435;53.292;6.000;2023-09-12T05:57:53;90.47;;;40.35;;
56537;SDS011;42435;53.292;6.000;2023-09-12T06:00:19;76.75;;;36.30;;
56537;SDS011;42435;53.292;6.000;2023-09-12T06:02:45;63.22;;;35.72;;
56537;SDS011;42435;53.292;6.000;2023-09-12T06:05:14;74.88;;;40.13;;
56537;SDS011;42435;53.292;6.000;2023-09-12T06:07:40;70.43;;;35.22;;
56537;SDS011;42435;53.292;6.000;2023-09-12T06:10:07;83.20;;;39.60;;
56537;SDS011;42435;53.292;6.000;2023-09-12T06:12:33;77.50;;;38.72;;
56537;SDS011;42435;53.292;6.000;2023-09-12T06:15:01;62.88;;;37.05;;
56537;SDS011;42435;53.292;6.000;2023-09-12T06:17:29;69.47;;;38.85;;
56537;SDS011;42435;53.292;6.000;2023-09-12T06:19:55;78.47;;;40.63;;
56537;SDS011;42435;53.292;6.000;2023-09-12T06:22:21;64.78;;;38.10;;
56537;SDS011;42435;53.292;6.000;2023-09-12T06:24:48;77.80;;;41.15;;
56537;SDS011;42435;53.292;6.000;2023-09-12T06:27:16;81.25;;;42.63;;
56537;SDS011;42435;53.292;6.000;2023-09-12T06:29:45;75.85;;;41.70;;
56537;SDS011;42435;53.292;6.000;2023-09-12T06:32:15;63.67;;;38.33;;
56537;SDS011;42435;53.292;6.000;2023-09-12T06:34:41;78.03;;;41.30;;
56537;SDS011;42435;53.292;6.000;2023-09-12T06:37:07;79.57;;;41.72;;
56537;SDS011;42435;53.292;6.000;2023-09-12T06:39:33;73.53;;;40.25;;
56537;SDS011;42435;53.292;6.000;2023-09-12T06:41:58;84.05;;;41.67;;
56537;SDS011;42435;53.292;6.000;2023-09-12T06:44:24;72.10;;;40.13;;
56537;SDS011;42435;53.292;6.000;2023-09-12T06:46:50;71.10;;;39.70;;
56537;SDS011;42435;53.292;6.000;2023-09-12T06:49:16;77.95;;;41.05;;
56537;SDS011;42435;53.292;6.000;2023-09-12T06:51:42;81.38;;;41.67;;
56537;SDS011;42435;53.292;6.000;2023-09-12T06:54:08;76.57;;;40.50;;
56537;SDS011;42435;53.292;6.000;2023-09-12T06:56:35;66.32;;;37.33;;
56537;SDS011;42435;53.292;6.000;2023-09-12T06:59:03;76.60;;;40.25;;
56537;SDS011;42435;53.292;6.000;2023-09-12T07:01:29;71.10;;;38.03;;
56537;SDS011;42435;53.292;6.000;2023-09-12T07:03:55;69.15;;;38.35;;
56537;SDS011;42435;53.292;6.000;2023-09-12T07:06:21;84.75;;;41.85;;
56537;SDS011;42435;53.292;6.000;2023-09-12T07:08:47;76.05;;;39.88;;
56537;SDS011;42435;53.292;6.000;2023-09-12T07:11:13;73.90;;;39.92;;
56537;SDS011;42435;53.292;6.000;2023-09-12T07:13:38;73.05;;;39.83;;
56537;SDS011;42435;53.292;6.000;2023-09-12T07:16:04;90.32;;;43.42;;
56537;SDS011;42435;53.292;6.000;2023-09-12T07:18:30;85.07;;;42.83;;
56537;SDS011;42435;53.292;6.000;2023-09-12T07:21:00;80.22;;;42.08;;
56537;SDS011;42435;53.292;6.000;2023-09-12T07:23:30;73.00;;;41.50;;
56537;SDS011;42435;53.292;6.000;2023-09-12T07:25:56;79.13;;;42.72;;
56537;SDS011;42435;53.292;6.000;2023-09-12T07:28:25;73.55;;;42.70;;
56537;SDS011;42435;53.292;6.000;2023-09-12T07:30:51;73.60;;;42.55;;
56537;SDS011;42435;53.292;6.000;2023-09-12T07:33:17;74.63;;;42.15;;
56537;SDS011;42435;53.292;6.000;2023-09-12T07:35:43;66.80;;;39.15;;
56537;SDS011;42435;53.292;6.000;2023-09-12T07:38:14;77.43;;;42.58;;
56537;SDS011;42435;53.292;6.000;2023-09-12T07:40:41;69.32;;;40.63;;
56537;SDS011;42435;53.292;6.000;2023-09-12T07:43:07;73.28;;;41.38;;
56537;SDS011;42435;53.292;6.000;2023-09-12T07:45:32;63.22;;;39.38;;
56537;SDS011;42435;53.292;6.000;2023-09-12T07:48:05;66.20;;;39.08;;
56537;SDS011;42435;53.292;6.000;2023-09-12T07:50:32;68.00;;;40.30;;
56537;SDS011;42435;53.292;6.000;2023-09-12T07:52:57;63.03;;;37.40;;
56537;SDS011;42435;53.292;6.000;2023-09-12T07:55:23;59.97;;;38.00;;
56537;SDS011;42435;53.292;6.000;2023-09-12T07:57:49;65.45;;;38.13;;
56537;SDS011;42435;53.292;6.000;2023-09-12T08:00:14;61.28;;;36.90;;
56537;SDS011;42435;53.292;6.000;2023-09-12T08:02:41;61.97;;;37.90;;
56537;SDS011;42435;53.292;6.000;2023-09-12T08:05:08;55.50;;;35.85;;
56537;SDS011;42435;53.292;6.000;2023-09-12T08:07:34;58.67;;;35.83;;
56537;SDS011;42435;53.292;6.000;2023-09-12T08:10:00;54.72;;;36.40;;
56537;SDS011;42435;53.292;6.000;2023-09-12T08:12:26;59.70;;;36.00;;
56537;SDS011;42435;53.292;6.000;2023-09-12T08:14:52;59.42;;;37.78;;
56537;SDS011;42435;53.292;6.000;2023-09-12T08:17:19;57.72;;;37.05;;
56537;SDS011;42435;53.292;6.000;2023-09-12T08:19:44;53.67;;;35.13;;
56537;SDS011;42435;53.292;6.000;2023-09-12T08:22:11;56.17;;;35.63;;
56537;SDS011;42435;53.292;6.000;2023-09-12T08:24:37;59.25;;;35.42;;
56537;SDS011;42435;53.292;6.000;2023-09-12T08:27:06;53.13;;;34.67;;
56537;SDS011;42435;53.292;6.000;2023-09-12T08:29:34;54.38;;;35.33;;
56537;SDS011;42435;53.292;6.000;2023-09-12T08:32:00;50.22;;;33.60;;
56537;SDS011;42435;53.292;6.000;2023-09-12T08:34:25;54.53;;;33.55;;
56537;SDS011;42435;53.292;6.000;2023-09-12T08:36:51;51.65;;;35.45;;
56537;SDS011;42435;53.292;6.000;2023-09-12T08:39:18;48.70;;;34.47;;
56537;SDS011;42435;53.292;6.000;2023-09-12T08:41:49;51.25;;;32.58;;
56537;SDS011;42435;53.292;6.000;2023-09-12T08:44:15;48.83;;;31.90;;
56537;SDS011;42435;53.292;6.000;2023-09-12T08:46:44;46.50;;;31.77;;
56537;SDS011;42435;53.292;6.000;2023-09-12T08:49:10;46.30;;;30.75;;
56537;SDS011;42435;53.292;6.000;2023-09-12T08:51:39;41.45;;;28.40;;
56537;SDS011;42435;53.292;6.000;2023-09-12T08:54:05;41.00;;;27.65;;
56537;SDS011;42435;53.292;6.000;2023-09-12T08:56:34;39.67;;;28.02;;
56537;SDS011;42435;53.292;6.000;2023-09-12T08:59:02;42.42;;;28.80;;
56537;SDS011;42435;53.292;6.000;2023-09-12T09:01:32;46.60;;;31.10;;
56537;SDS011;42435;53.292;6.000;2023-09-12T09:04:01;44.08;;;29.10;;
56537;SDS011;42435;53.292;6.000;2023-09-12T09:06:28;43.85;;;29.20;;
56537;SDS011;42435;53.292;6.000;2023-09-12T09:08:56;44.38;;;29.60;;
56537;SDS011;42435;53.292;6.000;2023-09-12T09:11:24;43.75;;;29.23;;
56537;SDS011;42435;53.292;6.000;2023-09-12T09:13:52;45.72;;;31.35;;
56537;SDS011;42435;53.292;6.000;2023-09-12T09:16:18;45.35;;;28.63;;
56537;SDS011;42435;53.292;6.000;2023-09-12T09:21:25;37.42;;;25.20;;
56537;SDS011;42435;53.292;6.000;2023-09-12T09:23:55;35.38;;;23.73;;
56537;SDS011;42435;53.292;6.000;2023-09-12T09:26:21;33.60;;;22.17;;
56537;SDS011;42435;53.292;6.000;2023-09-12T09:31:28;29.58;;;20.65;;
56537;SDS011;42435;53.292;6.000;2023-09-12T09:33:54;26.83;;;18.23;;
56537;SDS011;42435;53.292;6.000;2023-09-12T09:36:20;26.30;;;16.88;;
56537;SDS011;42435;53.292;6.000;2023-09-12T09:38:49;25.92;;;18.15;;
56537;SDS011;42435;53.292;6.000;2023-09-12T09:41:15;27.95;;;17.38;;
56537;SDS011;42435;53.292;6.000;2023-09-12T09:43:40;28.30;;;18.33;;
56537;SDS011;42435;53.292;6.000;2023-09-12T09:46:07;26.60;;;18.58;;
56537;SDS011;42435;53.292;6.000;2023-09-12T09:48:40;27.52;;;19.33;;
56537;SDS011;42435;53.292;6.000;2023-09-12T09:51:14;23.58;;;16.33;;
56537;SDS011;42435;53.292;6.000;2023-09-12T09:53:40;22.75;;;16.13;;
56537;SDS011;42435;53.292;6.000;2023-09-12T09:56:12;22.00;;;16.00;;
56537;SDS011;42435;53.292;6.000;2023-09-12T09:58:48;24.23;;;15.95;;
56537;SDS011;42435;53.292;6.000;2023-09-12T10:01:17;23.90;;;18.27;;
56537;SDS011;42435;53.292;6.000;2023-09-12T10:03:48;29.35;;;19.58;;
56537;SDS011;42435;53.292;6.000;2023-09-12T10:06:15;27.80;;;18.98;;
56537;SDS011;42435;53.292;6.000;2023-09-12T10:08:46;21.13;;;14.27;;
56537;SDS011;42435;53.292;6.000;2023-09-12T10:11:17;16.52;;;13.10;;
56537;SDS011;42435;53.292;6.000;2023-09-12T10:13:55;19.55;;;12.07;;
56537;SDS011;42435;53.292;6.000;2023-09-12T10:16:28;17.88;;;12.00;;
56537;SDS011;42435;53.292;6.000;2023-09-12T10:19:04;18.38;;;12.55;;
56537;SDS011;42435;53.292;6.000;2023-09-12T10:21:38;18.27;;;14.20;;
56537;SDS011;42435;53.292;6.000;2023-09-12T10:26:50;22.48;;;14.35;;
56537;SDS011;42435;53.292;6.000;2023-09-12T10:29:17;19.52;;;14.15;;
56537;SDS011;42435;53.292;6.000;2023-09-12T10:31:42;20.25;;;14.27;;
56537;SDS011;42435;53.292;6.000;2023-09-12T10:34:08;19.30;;;14.13;;
56537;SDS011;42435;53.292;6.000;2023-09-12T10:36:38;16.70;;;12.55;;
56537;SDS011;42435;53.292;6.000;2023-09-12T10:39:05;19.40;;;12.82;;
56537;SDS011;42435;53.292;6.000;2023-09-12T10:41:32;18.42;;;12.13;;
56537;SDS011;42435;53.292;6.000;2023-09-12T10:44:01;15.70;;;11.00;;
56537;SDS011;42435;53.292;6.000;2023-09-12T10:46:34;16.58;;;12.05;;
56537;SDS011;42435;53.292;6.000;2023-09-12T10:49:08;15.07;;;11.98;;
56537;SDS011;42435;53.292;6.000;2023-09-12T10:51:39;15.68;;;12.27;;
56537;SDS011;42435;53.292;6.000;2023-09-12T10:54:06;15.77;;;11.88;;
56537;SDS011;42435;53.292;6.000;2023-09-12T10:56:34;18.15;;;12.85;;
56537;SDS011;42435;53.292;6.000;2023-09-12T11:01:32;17.15;;;12.25;;
56537;SDS011;42435;53.292;6.000;2023-09-12T11:06:48;16.70;;;12.75;;
56537;SDS011;42435;53.292;6.000;2023-09-12T11:11:48;15.88;;;12.80;;
56537;SDS011;42435;53.292;6.000;2023-09-12T11:14:26;13.15;;;11.77;;
56537;SDS011;42435;53.292;6.000;2023-09-12T11:19:46;12.43;;;10.43;;
56537;SDS011;42435;53.292;6.000;2023-09-12T11:22:29;13.75;;;11.02;;
56537;SDS011;42435;53.292;6.000;2023-09-12T11:25:03;11.93;;;10.57;;
56537;SDS011;42435;53.292;6.000;2023-09-12T11:27:31;14.77;;;10.18;;
56537;SDS011;42435;53.292;6.000;2023-09-12T11:30:08;12.95;;;10.82;;
56537;SDS011;42435;53.292;6.000;2023-09-12T11:32:35;12.55;;;10.50;;
56537;SDS011;42435;53.292;6.000;2023-09-12T11:35:05;12.20;;;9.00;;
56537;SDS011;42435;53.292;6.000;2023-09-12T11:37:32;11.95;;;9.27;;
56537;SDS011;42435;53.292;6.000;2023-09-12T11:40:00;10.43;;;9.00;;
56537;SDS011;42435;53.292;6.000;2023-09-12T11:42:26;11.15;;;8.30;;
56537;SDS011;42435;53.292;6.000;2023-09-12T11:44:52;12.38;;;8.55;;
56537;SDS011;42435;53.292;6.000;2023-09-12T11:47:18;11.75;;;8.05;;
56537;SDS011;42435;53.292;6.000;2023-09-12T11:49:45;11.25;;;8.30;;
56537;SDS011;42435;53.292;6.000;2023-09-12T11:52:11;8.13;;;7.25;;
56537;SDS011;42435;53.292;6.000;2023-09-12T11:54:39;11.52;;;7.63;;
56537;SDS011;42435;53.292;6.000;2023-09-12T11:57:08;11.18;;;8.73;;
56537;SDS011;42435;53.292;6.000;2023-09-12T11:59:41;13.05;;;8.93;;
56537;SDS011;42435;53.292;6.000;2023-09-12T12:02:13;11.80;;;8.27;;
56537;SDS011;42435;53.292;6.000;2023-09-12T12:04:39;10.93;;;8.77;;
56537;SDS011;42435;53.292;6.000;2023-09-12T12:07:05;11.73;;;7.80;;
56537;SDS011;42435;53.292;6.000;2023-09-12T12:09:35;8.27;;;7.03;;
56537;SDS011;42435;53.292;6.000;2023-09-12T12:12:10;10.18;;;6.68;;
56537;SDS011;42435;53.292;6.000;2023-09-12T12:14:39;6.85;;;5.43;;
56537;SDS011;42435;53.292;6.000;2023-09-12T12:17:09;8.20;;;5.47;;
56537;SDS011;42435;53.292;6.000;2023-09-12T12:19:35;7.00;;;5.57;;
56537;SDS011;42435;53.292;6.000;2023-09-12T12:22:02;5.50;;;4.90;;
56537;SDS011;42435;53.292;6.000;2023-09-12T12:24:39;7.80;;;4.70;;
56537;SDS011;42435;53.292;6.000;2023-09-12T12:27:06;5.15;;;4.65;;
56537;SDS011;42435;53.292;6.000;2023-09-12T12:29:34;7.40;;;5.35;;
56537;SDS011;42435;53.292;6.000;2023-09-12T12:32:00;5.55;;;4.35;;
56537;SDS011;42435;53.292;6.000;2023-09-12T12:34:34;6.80;;;5.55;;
56537;SDS011;42435;53.292;6.000;2023-09-12T12:37:00;8.73;;;5.68;;
56537;SDS011;42435;53.292;6.000;2023-09-12T12:39:26;6.05;;;5.45;;
56537;SDS011;42435;53.292;6.000;2023-09-12T12:41:52;7.18;;;5.28;;
56537;SDS011;42435;53.292;6.000;2023-09-12T12:44:22;5.88;;;5.25;;
56537;SDS011;42435;53.292;6.000;2023-09-12T12:46:51;7.00;;;5.47;;
56537;SDS011;42435;53.292;6.000;2023-09-12T12:49:20;7.45;;;5.55;;
56537;SDS011;42435;53.292;6.000;2023-09-12T12:51:49;7.78;;;5.90;;
56537;SDS011;42435;53.292;6.000;2023-09-12T12:54:16;8.15;;;5.85;;
56537;SDS011;42435;53.292;6.000;2023-09-12T12:56:42;8.02;;;5.30;;
56537;SDS011;42435;53.292;6.000;2023-09-12T12:59:08;9.13;;;5.15;;
56537;SDS011;42435;53.292;6.000;2023-09-12T13:01:36;9.63;;;4.93;;
56537;SDS011;42435;53.292;6.000;2023-09-12T13:04:06;6.38;;;4.50;;
56537;SDS011;42435;53.292;6.000;2023-09-12T13:06:33;7.75;;;5.30;;
56537;SDS011;42435;53.292;6.000;2023-09-12T13:09:01;6.50;;;4.22;;
56537;SDS011;42435;53.292;6.000;2023-09-12T13:11:32;9.38;;;4.55;;
56537;SDS011;42435;53.292;6.000;2023-09-12T13:13:59;6.88;;;4.43;;
56537;SDS011;42435;53.292;6.000;2023-09-12T13:16:25;7.07;;;4.00;;
56537;SDS011;42435;53.292;6.000;2023-09-12T13:18:51;6.20;;;3.70;;
56537;SDS011;42435;53.292;6.000;2023-09-12T13:21:17;7.30;;;3.88;;
56537;SDS011;42435;53.292;6.000;2023-09-12T13:23:42;5.50;;;3.80;;
56537;SDS011;42435;53.292;6.000;2023-09-12T13:26:08;8.55;;;3.97;;
56537;SDS011;42435;53.292;6.000;2023-09-12T13:28:35;5.50;;;3.13;;
56537;SDS011;42435;53.292;6.000;2023-09-12T13:31:01;7.38;;;3.60;;
56537;SDS011;42435;53.292;6.000;2023-09-12T13:33:28;4.40;;;3.25;;
56537;SDS011;42435;53.292;6.000;2023-09-12T13:35:55;8.82;;;4.18;;
56537;SDS011;42435;53.292;6.000;2023-09-12T13:38:20;3.78;;;3.17;;
56537;SDS011;42435;53.292;6.000;2023-09-12T13:40:49;7.72;;;3.53;;
56537;SDS011;42435;53.292;6.000;2023-09-12T13:43:15;4.90;;;3.47;;
56537;SDS011;42435;53.292;6.000;2023-09-12T13:45:40;7.75;;;3.35;;
56537;SDS011;42435;53.292;6.000;2023-09-12T13:48:06;7.68;;;3.15;;
56537;SDS011;42435;53.292;6.000;2023-09-12T13:50:33;5.90;;;3.25;;
56537;SDS011;42435;53.292;6.000;2023-09-12T13:52:59;7.47;;;3.75;;
56537;SDS011;42435;53.292;6.000;2023-09-12T13:55:28;5.35;;;3.42;;
56537;SDS011;42435;53.292;6.000;2023-09-12T13:57:54;5.78;;;3.50;;
56537;SDS011;42435;53.292;6.000;2023-09-12T14:00:22;6.65;;;3.42;;
56537;SDS011;42435;53.292;6.000;2023-09-12T14:02:48;4.57;;;2.95;;
56537;SDS011;42435;53.292;6.000;2023-09-12T14:05:14;5.13;;;3.30;;
56537;SDS011;42435;53.292;6.000;2023-09-12T14:07:39;4.03;;;3.10;;
56537;SDS011;42435;53.292;6.000;2023-09-12T14:10:08;6.63;;;3.55;;
56537;SDS011;42435;53.292;6.000;2023-09-12T14:12:34;6.20;;;3.60;;
56537;SDS011;42435;53.292;6.000;2023-09-12T14:15:00;6.68;;;3.95;;
56537;SDS011;42435;53.292;6.000;2023-09-12T14:17:26;6.30;;;3.20;;
56537;SDS011;42435;53.292;6.000;2023-09-12T14:19:53;5.05;;;3.50;;
56537;SDS011;42435;53.292;6.000;2023-09-12T14:22:19;4.38;;;3.63;;
56537;SDS011;42435;53.292;6.000;2023-09-12T14:24:46;5.70;;;3.53;;
56537;SDS011;42435;53.292;6.000;2023-09-12T14:27:12;7.25;;;3.92;;
56537;SDS011;42435;53.292;6.000;2023-09-12T14:29:38;5.38;;;4.00;;
56537;SDS011;42435;53.292;6.000;2023-09-12T14:32:03;8.55;;;3.95;;
56537;SDS011;42435;53.292;6.000;2023-09-12T14:34:29;7.35;;;3.72;;
56537;SDS011;42435;53.292;6.000;2023-09-12T14:36:58;5.25;;;3.55;;
56537;SDS011;42435;53.292;6.000;2023-09-12T14:39:24;6.68;;;4.40;;
56537;SDS011;42435;53.292;6.000;2023-09-12T14:41:50;6.60;;;3.80;;
56537;SDS011;42435;53.292;6.000;2023-09-12T14:44:20;7.45;;;4.05;;
56537;SDS011;42435;53.292;6.000;2023-09-12T14:46:49;6.38;;;3.50;;